Time,TemperatureF,DewpointF,PressureIn,WindDirection,WindDirectionDegrees,WindSpeedMPH,WindSpeedGustMPH,Humidity,HourlyPrecipIn,Conditions,Clouds,dailyrainin,SoftwareType,DateUTC
2013-03-24 00:00:00,41.0,41.0,29.72,SW,236,2.7,2.7,100,0.00,,,0.35,VWS V13.01,2013-03-24 05:00:00,
2013-03-24 00:05:00,41.0,41.0,29.72,SW,236,2.2,2.7,100,0.00,,,0.00,VWS V13.01,2013-03-24 05:05:00,
2013-03-24 00:10:00,41.0,41.0,29.72,SW,236,0.0,0.0,100,0.00,,,0.00,VWS V13.01,2013-03-24 05:10:00,
2013-03-24 00:15:00,41.0,41.0,29.72,SW,236,0.0,0.0,100,0.00,,,0.00,VWS V13.01,2013-03-24 05:15:00,
2013-03-24 00:20:00,41.0,41.0,29.72,WSW,239,2.7,2.7,100,0.00,,,0.00,VWS V13.01,2013-03-24 05:20:00,
2013-03-24 00:25:00,41.2,41.2,29.72,WSW,240,0.0,0.0,100,0.00,,,0.00,VWS V13.01,2013-03-24 05:25:00,
2013-03-24 00:30:00,41.2,41.2,29.72,WSW,240,0.0,0.0,100,0.00,,,0.00,VWS V13.01,2013-03-24 05:30:00,
2013-03-24 00:35:00,41.2,41.2,29.72,WSW,240,0.0,0.0,100,0.00,,,0.00,VWS V13.01,2013-03-24 05:35:00,
2013-03-24 00:40:00,41.3,41.3,29.72,ENE,73,0.0,0.0,100,0.00,,,0.00,VWS V13.01,2013-03-24 05:40:00,
2013-03-24 00:45:00,41.3,41.3,29.69,ENE,73,0.0,0.0,100,0.00,,,0.00,VWS V13.01,2013-03-24 05:45:00,
2013-03-24 00:50:00,41.2,41.2,29.69,ENE,73,0.0,0.0,100,0.00,,,0.00,VWS V13.01,2013-03-24 05:50:00,
2013-03-24 00:55:00,41.3,41.3,29.69,NE,51,3.6,3.6,100,0.00,,,0.00,VWS V13.01,2013-03-24 05:55:00,
2013-03-24 01:00:00,41.3,41.3,29.66,NE,45,3.6,4.0,100,0.00,,,0.00,VWS V13.01,2013-03-24 06:00:00,
2013-03-24 01:05:00,41.2,41.2,29.66,NE,53,0.0,0.0,100,0.00,,,0.00,VWS V13.01,2013-03-24 06:05:00,
2013-03-24 01:10:00,41.2,41.2,29.66,SW,215,0.0,0.0,100,0.00,,,0.00,VWS V13.01,2013-03-24 06:10:00,
2013-03-24 01:15:00,41.3,41.3,29.72,SW,235,5.8,6.3,100,0.00,,,0.00,VWS V13.01,2013-03-24 06:15:00,
2013-03-24 01:20:00,41.5,41.5,29.72,WSW,239,5.4,5.8,100,0.00,,,0.00,VWS V13.01,2013-03-24 06:20:00,
2013-03-24 01:25:00,41.5,41.5,29.72,WSW,238,2.2,2.7,100,0.00,,,0.00,VWS V13.01,2013-03-24 06:25:00,
2013-03-24 01:30:00,41.5,41.5,29.72,SW,235,2.7,3.1,100,0.00,,,0.00,VWS V13.01,2013-03-24 06:30:00,
2013-03-24 01:35:00,41.5,41.5,29.72,WSW,245,2.7,2.7,100,0.00,,,0.00,VWS V13.01,2013-03-24 06:35:00,
2013-03-24 01:40:00,41.5,41.5,29.72,SSW,201,0.0,3.1,100,0.00,,,0.00,VWS V13.01,2013-03-24 06:40:00,
2013-03-24 01:45:00,41.5,41.5,29.72,SSW,201,0.0,0.0,100,0.00,,,0.00,VWS V13.01,2013-03-24 06:45:00,
2013-03-24 01:50:00,41.5,41.5,29.72,South,184,3.1,3.6,100,0.00,,,0.00,VWS V13.01,2013-03-24 06:50:00,
2013-03-24 01:55:00,41.5,41.5,29.72,South,189,2.2,2.7,100,0.00,,,0.00,VWS V13.01,2013-03-24 06:55:00,
2013-03-24 02:00:00,41.5,41.5,29.72,South,185,3.1,3.1,100,0.00,,,0.00,VWS V13.01,2013-03-24 07:00:00,
2013-03-24 02:05:00,41.5,41.5,29.72,SSE,167,2.2,3.6,100,0.00,,,0.00,VWS V13.01,2013-03-24 07:05:00,
2013-03-24 02:10:00,41.5,41.5,29.72,SSE,164,2.2,2.7,100,0.00,,,0.00,VWS V13.01,2013-03-24 07:10:00,
2013-03-24 02:15:00,41.5,41.5,29.72,SSE,164,0.0,0.0,100,0.00,,,0.00,VWS V13.01,2013-03-24 07:15:00,
2013-03-24 02:20:00,41.5,41.5,29.72,SSE,164,0.0,0.0,100,0.00,,,0.00,VWS V13.01,2013-03-24 07:20:00,
2013-03-24 02:25:00,41.5,41.5,29.72,SSW,204,3.6,3.6,100,0.00,,,0.00,VWS V13.01,2013-03-24 07:25:00,
2013-03-24 02:30:00,41.5,41.5,29.72,SW,231,2.7,2.7,100,0.00,,,0.00,VWS V13.01,2013-03-24 07:30:00,
2013-03-24 02:35:00,41.5,41.5,29.72,SW,218,3.1,3.1,100,0.00,,,0.00,VWS V13.01,2013-03-24 07:35:00,
2013-03-24 02:40:00,41.5,41.5,29.72,WSW,239,3.6,4.0,100,0.00,,,0.00,VWS V13.01,2013-03-24 07:40:00,
2013-03-24 02:45:00,41.5,41.5,29.72,SSW,205,4.0,6.3,100,0.00,,,0.00,VWS V13.01,2013-03-24 07:45:00,
2013-03-24 02:50:00,41.5,41.5,29.72,SSW,203,3.6,3.6,100,0.00,,,0.00,VWS V13.01,2013-03-24 07:50:00,
2013-03-24 02:55:00,41.5,41.5,29.72,WSW,240,5.4,5.4,100,0.00,,,0.00,VWS V13.01,2013-03-24 07:55:00,
2013-03-24 03:00:00,41.7,41.7,29.72,SW,215,5.4,5.4,100,0.00,,,0.00,VWS V13.01,2013-03-24 08:00:00,
2013-03-24 03:05:00,41.7,41.7,29.72,South,188,5.8,6.3,100,0.00,,,0.00,VWS V13.01,2013-03-24 08:05:00,
2013-03-24 03:10:00,41.7,41.7,29.72,SW,227,2.7,4.9,100,0.00,,,0.00,VWS V13.01,2013-03-24 08:10:00,
2013-03-24 03:15:00,41.7,41.7,29.69,SW,228,3.1,3.6,100,0.00,,,0.00,VWS V13.01,2013-03-24 08:15:00,
2013-03-24 03:20:00,41.5,41.5,29.69,South,172,3.1,3.1,100,0.00,,,0.00,VWS V13.01,2013-03-24 08:20:00,
2013-03-24 03:25:00,41.5,41.5,29.69,South,178,2.7,2.7,100,0.00,,,0.00,VWS V13.01,2013-03-24 08:25:00,
2013-03-24 03:29:00,41.5,41.5,29.69,South,169,4.0,4.0,100,0.00,,,0.00,VWS V13.01,2013-03-24 08:29:00,
2013-03-24 03:34:00,41.5,41.5,29.69,SE,143,0.0,0.0,100,0.00,,,0.00,VWS V13.01,2013-03-24 08:34:00,
2013-03-24 03:39:00,41.5,41.5,29.69,ENE,58,3.1,3.1,100,0.00,,,0.00,VWS V13.01,2013-03-24 08:39:00,
2013-03-24 03:44:00,41.5,41.5,29.66,ENE,61,0.0,2.7,100,0.00,,,0.00,VWS V13.01,2013-03-24 08:44:00,
2013-03-24 03:49:00,41.3,41.3,29.66,SSW,195,4.0,4.5,100,0.00,,,0.00,VWS V13.01,2013-03-24 08:49:00,
2013-03-24 03:54:00,41.3,41.3,29.66,South,173,2.7,4.0,100,0.00,,,0.00,VWS V13.01,2013-03-24 08:54:00,
2013-03-24 03:59:00,41.3,41.3,29.63,SE,143,3.1,4.0,100,0.00,,,0.00,VWS V13.01,2013-03-24 08:59:00,
2013-03-24 04:04:00,41.3,41.3,29.63,SSE,163,4.9,5.8,100,0.00,,,0.00,VWS V13.01,2013-03-24 09:04:00,
2013-03-24 04:09:00,41.3,41.3,29.63,SSW,195,2.7,3.6,100,0.00,,,0.00,VWS V13.01,2013-03-24 09:09:00,
2013-03-24 04:14:00,41.2,41.2,29.66,SSW,196,4.0,4.0,100,0.00,,,0.00,VWS V13.01,2013-03-24 09:14:00,
2013-03-24 04:19:00,41.2,41.2,29.66,SSW,199,3.1,4.0,100,0.00,,,0.00,VWS V13.01,2013-03-24 09:19:00,
2013-03-24 04:24:00,41.2,41.2,29.66,SW,217,4.9,5.8,100,0.00,,,0.00,VWS V13.01,2013-03-24 09:24:00,
2013-03-24 04:29:00,41.2,41.2,29.66,WSW,251,4.0,4.0,100,0.00,,,0.00,VWS V13.01,2013-03-24 09:29:00,
2013-03-24 04:34:00,41.2,41.2,29.66,SSW,207,5.4,5.4,100,0.00,,,0.00,VWS V13.01,2013-03-24 09:34:00,
2013-03-24 04:39:00,41.2,41.2,29.66,SSW,202,4.0,4.9,100,0.00,,,0.00,VWS V13.01,2013-03-24 09:39:00,
2013-03-24 04:44:00,41.0,41.0,29.66,SW,219,4.0,5.8,100,0.00,,,0.00,VWS V13.01,2013-03-24 09:44:00,
2013-03-24 04:49:00,41.0,41.0,29.66,SSW,194,2.7,2.7,100,0.00,,,0.00,VWS V13.01,2013-03-24 09:49:00,
2013-03-24 04:54:00,41.0,41.0,29.66,WSW,247,5.4,5.4,100,0.00,,,0.00,VWS V13.01,2013-03-24 09:54:00,
2013-03-24 04:59:00,41.0,41.0,29.66,SW,216,5.4,5.4,100,0.00,,,0.00,VWS V13.01,2013-03-24 09:59:00,
2013-03-24 05:04:00,41.0,41.0,29.66,SSW,212,4.0,4.0,100,0.00,,,0.00,VWS V13.01,2013-03-24 10:04:00,
2013-03-24 05:09:00,41.0,41.0,29.66,SW,231,4.0,4.0,100,0.00,,,0.00,VWS V13.01,2013-03-24 10:09:00,
2013-03-24 05:14:00,41.0,41.0,29.66,SW,228,4.5,4.9,100,0.00,,,0.00,VWS V13.01,2013-03-24 10:14:00,
2013-03-24 05:19:00,41.2,41.2,29.66,SW,222,4.0,4.0,100,0.00,,,0.00,VWS V13.01,2013-03-24 10:19:00,
2013-03-24 05:24:00,41.2,41.2,29.66,SSW,204,3.1,4.0,100,0.00,,,0.00,VWS V13.01,2013-03-24 10:24:00,
2013-03-24 05:29:00,41.2,41.2,29.66,SW,221,5.4,8.3,100,0.00,,,0.00,VWS V13.01,2013-03-24 10:29:00,
2013-03-24 05:34:00,41.3,41.3,29.66,WSW,239,8.7,8.7,100,0.00,,,0.00,VWS V13.01,2013-03-24 10:34:00,
2013-03-24 05:39:00,41.5,41.5,29.66,SW,234,10.1,10.1,100,0.00,,,0.00,VWS V13.01,2013-03-24 10:39:00,
2013-03-24 05:44:00,41.5,41.5,29.66,WSW,240,8.7,8.7,100,0.00,,,0.00,VWS V13.01,2013-03-24 10:44:00,
2013-03-24 05:49:00,41.5,41.5,29.66,SW,218,12.3,12.3,100,0.00,,,0.00,VWS V13.01,2013-03-24 10:49:00,
2013-03-24 05:54:00,41.3,41.3,29.66,SW,227,10.5,10.5,100,0.00,,,0.00,VWS V13.01,2013-03-24 10:54:00,
2013-03-24 05:59:00,41.0,39.9,29.66,WSW,247,14.5,15.0,96,0.00,,,0.00,VWS V13.01,2013-03-24 10:59:00,
2013-03-24 06:04:00,40.3,38.4,29.66,SW,236,13.2,18.3,93,0.00,,,0.00,VWS V13.01,2013-03-24 11:04:00,
2013-03-24 06:09:00,39.9,38.0,29.66,West,261,11.0,11.0,93,0.00,,,0.00,VWS V13.01,2013-03-24 11:09:00,
2013-03-24 06:14:00,39.5,38.2,29.69,SW,215,8.3,12.3,95,0.00,,,0.00,VWS V13.01,2013-03-24 11:14:00,
2013-03-24 06:19:00,39.2,37.9,29.69,WSW,238,18.8,18.8,95,0.00,,,0.00,VWS V13.01,2013-03-24 11:19:00,
2013-03-24 06:24:00,39.2,37.9,29.69,WSW,242,8.1,12.8,95,0.00,,,0.00,VWS V13.01,2013-03-24 11:24:00,
2013-03-24 06:29:00,38.8,37.5,29.69,SW,235,12.3,15.0,95,0.00,,,0.00,VWS V13.01,2013-03-24 11:29:00,
2013-03-24 06:34:00,38.5,36.9,29.69,WSW,248,15.4,25.1,94,0.00,,,0.00,VWS V13.01,2013-03-24 11:34:00,
2013-03-24 06:39:00,38.3,36.7,29.69,SW,234,13.2,14.5,94,0.00,,,0.00,VWS V13.01,2013-03-24 11:39:00,
2013-03-24 06:44:00,38.1,36.3,29.69,SW,225,15.4,17.9,93,0.00,,,0.00,VWS V13.01,2013-03-24 11:44:00,
2013-03-24 06:49:00,38.1,36.3,29.69,West,261,12.3,13.2,93,0.00,,,0.00,VWS V13.01,2013-03-24 11:49:00,
2013-03-24 06:54:00,37.9,35.8,29.69,WSW,244,8.1,8.1,92,0.00,,,0.00,VWS V13.01,2013-03-24 11:54:00,
2013-03-24 06:59:00,37.7,35.3,29.69,WSW,238,12.8,15.4,91,0.00,,,0.00,VWS V13.01,2013-03-24 11:59:00,
2013-03-24 07:04:00,37.6,34.6,29.69,SW,231,13.2,15.9,89,0.00,,,0.00,VWS V13.01,2013-03-24 12:04:00,
2013-03-24 07:09:00,37.6,34.0,29.69,SW,217,8.7,19.2,87,0.00,,,0.00,VWS V13.01,2013-03-24 12:09:00,
2013-03-24 07:14:00,37.4,34.2,29.69,WSW,244,13.2,16.3,88,0.00,,,0.00,VWS V13.01,2013-03-24 12:14:00,
2013-03-24 07:19:00,37.4,33.9,29.69,SW,229,11.0,11.0,87,0.00,,,0.00,VWS V13.01,2013-03-24 12:19:00,
2013-03-24 07:24:00,37.2,33.7,29.69,SW,230,17.4,17.4,87,0.00,,,0.00,VWS V13.01,2013-03-24 12:24:00,
2013-03-24 07:29:00,37.2,33.4,29.69,SSW,198,10.5,15.0,86,0.00,,,0.00,VWS V13.01,2013-03-24 12:29:00,
2013-03-24 07:34:00,37.0,33.8,29.69,WSW,242,11.0,13.2,88,0.00,,,0.00,VWS V13.01,2013-03-24 12:34:00,
2013-03-24 07:39:00,36.8,33.3,29.69,SW,228,9.6,21.0,87,0.00,,,0.00,VWS V13.01,2013-03-24 12:39:00,
2013-03-24 07:44:00,36.8,32.5,29.69,WSW,238,11.0,13.2,84,0.00,,,0.00,VWS V13.01,2013-03-24 12:44:00,
2013-03-24 07:49:00,36.8,31.0,29.69,WSW,243,13.2,15.4,79,0.00,,,0.00,VWS V13.01,2013-03-24 12:49:00,
2013-03-24 07:54:00,36.8,30.6,29.69,WSW,249,13.2,15.4,78,0.00,,,0.00,VWS V13.01,2013-03-24 12:54:00,
2013-03-24 07:59:00,36.7,30.1,29.69,SW,235,11.9,15.4,77,0.00,,,0.00,VWS V13.01,2013-03-24 12:59:00,
2013-03-24 08:04:00,36.7,29.8,29.69,SW,228,12.8,24.6,76,0.00,,,0.00,VWS V13.01,2013-03-24 13:04:00,
2013-03-24 08:09:00,36.7,29.8,29.69,West,262,15.0,15.9,76,0.00,,,0.00,VWS V13.01,2013-03-24 13:09:00,
2013-03-24 08:14:00,36.7,29.5,29.69,WSW,243,15.4,15.4,75,0.00,,,0.00,VWS V13.01,2013-03-24 13:14:00,
2013-03-24 08:19:00,36.7,29.5,29.69,SW,231,15.0,17.9,75,0.00,,,0.00,VWS V13.01,2013-03-24 13:19:00,
2013-03-24 08:24:00,36.7,29.8,29.69,WSW,252,11.4,15.9,76,0.00,,,0.00,VWS V13.01,2013-03-24 13:24:00,
2013-03-24 08:29:00,36.5,29.6,29.72,WSW,258,17.0,17.0,76,0.00,,,0.00,VWS V13.01,2013-03-24 13:29:00,
2013-03-24 08:34:00,36.5,29.6,29.72,SW,214,15.0,15.0,76,0.00,,,0.00,VWS V13.01,2013-03-24 13:34:00,
2013-03-24 08:39:00,36.5,29.6,29.72,WSW,249,16.8,16.8,76,0.00,,,0.00,VWS V13.01,2013-03-24 13:39:00,
2013-03-24 08:44:00,36.7,30.1,29.72,WSW,239,18.3,19.7,77,0.00,,,0.00,VWS V13.01,2013-03-24 13:44:00,
2013-03-24 08:49:00,36.5,29.0,29.72,WSW,249,13.2,24.2,74,0.00,,,0.00,VWS V13.01,2013-03-24 13:49:00,
2013-03-24 08:54:00,36.5,29.0,29.72,West,264,13.6,17.9,74,0.00,,,0.00,VWS V13.01,2013-03-24 13:54:00,
2013-03-24 08:59:00,36.1,28.6,29.72,WNW,284,12.8,23.7,74,0.00,,,0.00,VWS V13.01,2013-03-24 13:59:00,
2013-03-24 09:04:00,36.1,29.3,29.72,SW,227,12.8,12.8,76,0.00,,,0.00,VWS V13.01,2013-03-24 14:04:00,
2013-03-24 09:09:00,35.9,28.5,29.72,SW,222,16.3,17.0,74,0.00,,,0.00,VWS V13.01,2013-03-24 14:09:00,
2013-03-24 09:14:00,35.9,29.1,29.72,SW,225,15.0,15.0,76,0.00,,,0.00,VWS V13.01,2013-03-24 14:14:00,
2013-03-24 09:19:00,35.6,28.8,29.72,SW,231,10.1,10.1,76,0.00,,,0.00,VWS V13.01,2013-03-24 14:19:00,
2013-03-24 09:24:00,35.4,28.9,29.72,SW,224,13.2,23.7,77,0.00,,,0.00,VWS V13.01,2013-03-24 14:24:00,
2013-03-24 09:29:00,34.9,28.7,29.75,WSW,243,15.0,25.5,78,0.00,,,0.00,VWS V13.01,2013-03-24 14:29:00,
2013-03-24 09:34:00,34.9,29.0,29.75,SSW,205,12.3,15.4,79,0.00,,,0.00,VWS V13.01,2013-03-24 14:34:00,
2013-03-24 09:39:00,34.7,29.1,29.75,SW,224,17.9,17.9,80,0.00,,,0.00,VWS V13.01,2013-03-24 14:39:00,
2013-03-24 09:44:00,34.5,28.7,29.75,WSW,245,12.8,19.7,79,0.00,,,0.00,VWS V13.01,2013-03-24 14:44:00,
2013-03-24 09:49:00,34.5,29.0,29.75,SW,233,12.8,19.2,80,0.00,,,0.00,VWS V13.01,2013-03-24 14:49:00,
2013-03-24 09:54:00,34.5,28.7,29.75,SW,219,15.4,20.1,79,0.00,,,0.00,VWS V13.01,2013-03-24 14:54:00,
2013-03-24 09:59:00,34.3,28.2,29.75,WSW,249,11.4,23.3,78,0.00,,,0.00,VWS V13.01,2013-03-24 14:59:00,
2013-03-24 10:04:00,34.5,28.7,29.75,SW,234,13.2,17.4,79,0.00,,,0.00,VWS V13.01,2013-03-24 15:04:00,
2013-03-24 10:09:00,34.5,28.4,29.75,WSW,256,17.4,17.4,78,0.00,,,0.00,VWS V13.01,2013-03-24 15:09:00,
2013-03-24 10:14:00,34.5,28.0,29.75,WSW,245,12.8,22.4,77,0.00,,,0.00,VWS V13.01,2013-03-24 15:14:00,
2013-03-24 10:19:00,34.5,27.7,29.75,SW,226,11.0,16.8,76,0.00,,,0.00,VWS V13.01,2013-03-24 15:19:00,
2013-03-24 10:24:00,34.5,28.0,29.75,WSW,254,18.8,18.8,77,0.00,,,0.00,VWS V13.01,2013-03-24 15:24:00,
2013-03-24 10:29:00,34.7,27.9,29.78,West,276,17.4,17.4,76,0.00,,,0.00,VWS V13.01,2013-03-24 15:29:00,
2013-03-24 10:34:00,34.7,27.6,29.78,SW,236,8.7,18.3,75,0.00,,,0.00,VWS V13.01,2013-03-24 15:34:00,
2013-03-24 10:39:00,34.9,27.8,29.78,WSW,243,10.1,15.0,75,0.00,,,0.00,VWS V13.01,2013-03-24 15:39:00,
2013-03-24 10:44:00,34.9,27.4,29.78,WSW,242,15.4,17.4,74,0.00,,,0.00,VWS V13.01,2013-03-24 15:44:00,
2013-03-24 10:49:00,35.0,27.9,29.78,WSW,242,8.7,11.9,75,0.00,,,0.00,VWS V13.01,2013-03-24 15:49:00,
2013-03-24 10:54:00,35.0,26.9,29.78,WSW,257,16.3,20.1,72,0.00,,,0.00,VWS V13.01,2013-03-24 15:54:00,
2013-03-24 10:59:00,35.0,26.9,29.78,SW,231,12.8,15.4,72,0.00,,,0.00,VWS V13.01,2013-03-24 15:59:00,
2013-03-24 11:04:00,35.2,27.5,29.78,SW,236,11.4,14.1,73,0.00,,,0.00,VWS V13.01,2013-03-24 16:04:00,
2013-03-24 11:09:00,35.2,27.1,29.78,WSW,239,11.4,15.0,72,0.00,,,0.00,VWS V13.01,2013-03-24 16:09:00,
2013-03-24 11:14:00,35.4,27.0,29.80,WSW,239,8.3,15.0,71,0.00,,,0.00,VWS V13.01,2013-03-24 16:14:00,
2013-03-24 11:19:00,35.4,27.0,29.80,WSW,245,9.6,14.5,71,0.00,,,0.00,VWS V13.01,2013-03-24 16:19:00,
2013-03-24 11:24:00,35.4,26.3,29.80,West,260,14.1,15.4,69,0.00,,,0.00,VWS V13.01,2013-03-24 16:24:00,
2013-03-24 11:29:00,35.6,27.1,29.80,SW,232,8.7,15.0,71,0.00,,,0.00,VWS V13.01,2013-03-24 16:29:00,
2013-03-24 11:34:00,35.6,26.8,29.80,WSW,247,11.0,12.8,70,0.00,,,0.00,VWS V13.01,2013-03-24 16:34:00,
2013-03-24 11:39:00,35.6,26.4,29.80,West,259,16.3,16.3,69,0.00,,,0.00,VWS V13.01,2013-03-24 16:39:00,
2013-03-24 11:44:00,35.8,26.6,29.83,West,261,13.2,13.2,69,0.00,,,0.00,VWS V13.01,2013-03-24 16:44:00,
2013-03-24 11:49:00,35.8,26.2,29.83,WSW,258,15.0,17.4,68,0.00,,,0.00,VWS V13.01,2013-03-24 16:49:00,
2013-03-24 11:54:00,35.8,25.5,29.83,WSW,253,9.2,13.2,66,0.00,,,0.00,VWS V13.01,2013-03-24 16:54:00,
2013-03-24 11:59:00,35.9,26.4,29.83,WSW,250,13.2,14.5,68,0.00,,,0.00,VWS V13.01,2013-03-24 16:59:00,
2013-03-24 12:04:00,35.9,25.3,29.83,WSW,254,10.1,10.1,65,0.00,,,0.00,VWS V13.01,2013-03-24 17:04:00,
2013-03-24 12:09:00,36.1,25.5,29.83,West,262,11.0,11.0,65,0.00,,,0.00,VWS V13.01,2013-03-24 17:09:00,
2013-03-24 12:14:00,36.1,24.8,29.86,West,281,10.5,13.2,63,0.00,,,0.00,VWS V13.01,2013-03-24 17:14:00,
2013-03-24 12:19:00,36.3,25.3,29.86,WNW,299,11.0,11.9,64,0.00,,,0.00,VWS V13.01,2013-03-24 17:19:00,
2013-03-24 12:24:00,36.5,25.5,29.86,WSW,250,15.0,15.0,64,0.00,,,0.00,VWS V13.01,2013-03-24 17:24:00,
2013-03-24 12:29:00,36.7,24.5,29.86,West,264,17.4,17.4,61,0.00,,,0.00,VWS V13.01,2013-03-24 17:29:00,
2013-03-24 12:34:00,36.8,25.1,29.86,West,270,8.3,13.2,62,0.00,,,0.00,VWS V13.01,2013-03-24 17:34:00,
2013-03-24 12:38:00,36.7,24.5,29.86,West,269,11.4,14.1,61,0.00,,,0.00,VWS V13.01,2013-03-24 17:38:00,
2013-03-24 12:43:00,37.0,25.6,29.86,West,264,15.0,15.0,63,0.00,,,0.00,VWS V13.01,2013-03-24 17:43:00,
2013-03-24 12:48:00,36.8,25.1,29.86,WSW,252,16.3,17.0,62,0.00,,,0.00,VWS V13.01,2013-03-24 17:48:00,
2013-03-24 12:53:00,36.7,24.9,29.86,WSW,251,15.0,16.8,62,0.00,,,0.00,VWS V13.01,2013-03-24 17:53:00,
2013-03-24 12:58:00,36.5,24.7,29.89,West,262,8.7,13.2,62,0.00,,,0.00,VWS V13.01,2013-03-24 17:58:00,
2013-03-24 13:03:00,36.5,24.7,29.89,WSW,242,11.4,15.4,62,0.00,,,0.00,VWS V13.01,2013-03-24 18:03:00,
2013-03-24 13:08:00,36.3,24.5,29.89,WSW,243,8.3,11.0,62,0.00,,,0.00,VWS V13.01,2013-03-24 18:08:00,
2013-03-24 13:13:00,36.3,24.9,29.89,West,278,13.6,13.6,63,0.00,,,0.00,VWS V13.01,2013-03-24 18:13:00,
2013-03-24 13:18:00,36.1,24.4,29.89,WSW,252,15.0,18.8,62,0.00,,,0.00,VWS V13.01,2013-03-24 18:18:00,
2013-03-24 13:23:00,35.9,24.2,29.89,West,279,10.5,10.5,62,0.00,,,0.00,VWS V13.01,2013-03-24 18:23:00,
2013-03-24 13:29:00,36.1,24.4,29.89,West,264,10.1,12.8,62,0.00,,,0.00,VWS V13.01,2013-03-24 18:29:00,
2013-03-24 13:33:00,36.1,24.8,29.89,West,275,10.5,11.9,63,0.00,,,0.00,VWS V13.01,2013-03-24 18:33:00,
2013-03-24 13:38:00,36.3,24.5,29.89,West,271,16.3,17.4,62,0.00,,,0.00,VWS V13.01,2013-03-24 18:38:00,
2013-03-24 13:43:00,36.3,24.9,29.89,WSW,253,12.8,12.8,63,0.00,,,0.00,VWS V13.01,2013-03-24 18:43:00,
2013-03-24 13:48:00,36.3,24.5,29.89,WNW,292,10.5,10.5,62,0.00,,,0.00,VWS V13.01,2013-03-24 18:48:00,
2013-03-24 13:53:00,36.5,25.1,29.89,WSW,252,8.3,8.3,63,0.00,,,0.00,VWS V13.01,2013-03-24 18:53:00,
2013-03-24 13:58:00,36.7,24.9,29.89,SW,223,5.8,10.1,62,0.00,,,0.00,VWS V13.01,2013-03-24 18:58:00,
2013-03-24 14:03:00,36.7,24.9,29.89,WNW,283,7.6,13.2,62,0.00,,,0.00,VWS V13.01,2013-03-24 19:03:00,
2013-03-24 14:09:00,36.7,25.3,29.89,West,269,8.1,12.8,63,0.00,,,0.00,VWS V13.01,2013-03-24 19:09:00,
2013-03-24 14:14:00,36.8,25.4,29.92,West,264,9.6,15.0,63,0.00,,,0.00,VWS V13.01,2013-03-24 19:14:00,
2013-03-24 14:19:00,36.8,25.1,29.92,WSW,247,8.7,11.9,62,0.00,,,0.00,VWS V13.01,2013-03-24 19:19:00,
2013-03-24 14:24:00,36.7,24.5,29.92,West,267,17.4,22.8,61,0.00,,,0.00,VWS V13.01,2013-03-24 19:24:00,
2013-03-24 14:29:00,36.5,24.7,29.92,WSW,255,11.0,12.8,62,0.00,,,0.00,VWS V13.01,2013-03-24 19:29:00,
2013-03-24 14:34:00,36.7,24.9,29.92,WSW,254,10.1,10.1,62,0.00,,,0.00,VWS V13.01,2013-03-24 19:34:00,
2013-03-24 14:39:00,36.5,24.7,29.92,WSW,238,8.3,12.3,62,0.00,,,0.00,VWS V13.01,2013-03-24 19:39:00,
2013-03-24 14:44:00,36.5,24.7,29.92,West,268,12.3,12.3,62,0.00,,,0.00,VWS V13.01,2013-03-24 19:44:00,
2013-03-24 14:48:00,36.7,24.9,29.92,NW,307,8.1,8.1,62,0.00,,,0.00,VWS V13.01,2013-03-24 19:48:00,
2013-03-24 14:54:00,37.0,24.8,29.92,WNW,282,15.0,17.4,61,0.00,,,0.00,VWS V13.01,2013-03-24 19:54:00,
2013-03-24 14:59:00,36.5,24.3,29.92,NW,315,10.1,11.9,61,0.00,,,0.00,VWS V13.01,2013-03-24 19:59:00,
2013-03-24 15:04:00,36.3,24.1,29.92,WSW,258,13.2,15.4,61,0.00,,,0.00,VWS V13.01,2013-03-24 20:04:00,
2013-03-24 15:09:00,36.5,24.3,29.92,NW,305,10.5,10.5,61,0.00,,,0.00,VWS V13.01,2013-03-24 20:09:00,
2013-03-24 15:14:00,36.3,24.1,29.92,West,262,8.7,12.8,61,0.00,,,0.00,VWS V13.01,2013-03-24 20:14:00,
2013-03-24 15:19:00,36.3,24.1,29.92,WSW,248,12.8,12.8,61,0.00,,,0.00,VWS V13.01,2013-03-24 20:19:00,
2013-03-24 15:24:00,36.3,23.8,29.92,WSW,253,13.2,13.2,60,0.00,,,0.00,VWS V13.01,2013-03-24 20:24:00,
2013-03-24 15:29:00,36.3,23.8,29.92,WSW,241,7.6,11.0,60,0.00,,,0.00,VWS V13.01,2013-03-24 20:29:00,
2013-03-24 15:34:00,36.5,24.3,29.92,West,269,13.2,15.4,61,0.00,,,0.00,VWS V13.01,2013-03-24 20:34:00,
2013-03-24 15:39:00,36.7,23.7,29.92,WNW,302,13.2,13.2,59,0.00,,,0.00,VWS V13.01,2013-03-24 20:39:00,
2013-03-24 15:44:00,36.5,23.9,29.92,WSW,250,15.0,15.0,60,0.00,,,0.00,VWS V13.01,2013-03-24 20:44:00,
2013-03-24 15:49:00,36.7,24.1,29.92,West,273,15.4,15.4,60,0.00,,,0.00,VWS V13.01,2013-03-24 20:49:00,
2013-03-24 15:53:00,36.8,24.3,29.92,West,263,8.3,11.0,60,0.00,,,0.00,VWS V13.01,2013-03-24 20:53:00,
2013-03-24 15:58:00,37.0,24.4,29.92,NW,308,7.6,10.5,60,0.00,,,0.00,VWS V13.01,2013-03-24 20:58:00,
2013-03-24 16:04:00,36.8,23.9,29.92,SW,220,15.9,16.3,59,0.00,,,0.00,VWS V13.01,2013-03-24 21:04:00,
2013-03-24 16:09:00,37.2,23.8,29.92,SW,227,10.1,17.9,58,0.00,,,0.00,VWS V13.01,2013-03-24 21:09:00,
2013-03-24 16:14:00,36.8,23.9,29.95,NW,325,11.0,12.8,59,0.00,,,0.00,VWS V13.01,2013-03-24 21:14:00,
2013-03-24 16:19:00,36.5,23.5,29.95,WNW,295,8.7,15.0,59,0.00,,,0.00,VWS V13.01,2013-03-24 21:19:00,
2013-03-24 16:24:00,36.5,23.9,29.95,West,259,15.0,15.0,60,0.00,,,0.00,VWS V13.01,2013-03-24 21:24:00,
2013-03-24 16:29:00,36.1,23.6,29.95,WSW,253,23.3,23.3,60,0.00,,,0.00,VWS V13.01,2013-03-24 21:29:00,
2013-03-24 16:34:00,36.1,23.6,29.95,WSW,248,8.7,13.2,60,0.00,,,0.00,VWS V13.01,2013-03-24 21:34:00,
2013-03-24 16:39:00,36.1,23.6,29.95,West,269,7.6,16.3,60,0.00,,,0.00,VWS V13.01,2013-03-24 21:39:00,
2013-03-24 16:44:00,36.3,23.4,29.95,West,280,6.3,10.1,59,0.00,,,0.00,VWS V13.01,2013-03-24 21:44:00,
2013-03-24 16:49:00,36.1,23.2,29.95,WSW,254,8.3,8.7,59,0.00,,,0.00,VWS V13.01,2013-03-24 21:49:00,
2013-03-24 16:54:00,35.8,22.9,29.95,WNW,282,10.1,15.4,59,0.00,,,0.00,VWS V13.01,2013-03-24 21:54:00,
2013-03-24 16:59:00,35.8,23.2,29.98,West,265,10.1,10.1,60,0.00,,,0.00,VWS V13.01,2013-03-24 21:59:00,
2013-03-24 17:04:00,35.6,23.5,29.98,West,275,8.3,11.0,61,0.00,,,0.00,VWS V13.01,2013-03-24 22:04:00,
2013-03-24 17:09:00,35.4,22.9,29.98,WSW,245,11.9,13.2,60,0.00,,,0.00,VWS V13.01,2013-03-24 22:09:00,
2013-03-24 17:14:00,35.4,22.9,29.98,West,268,8.7,9.6,60,0.00,,,0.00,VWS V13.01,2013-03-24 22:14:00,
2013-03-24 17:19:00,35.4,22.9,29.98,West,277,8.7,8.7,60,0.00,,,0.00,VWS V13.01,2013-03-24 22:19:00,
2013-03-24 17:24:00,35.8,22.9,29.98,West,259,15.9,15.9,59,0.00,,,0.00,VWS V13.01,2013-03-24 22:24:00,
2013-03-24 17:29:00,35.6,22.7,30.01,West,261,12.3,15.4,59,0.00,,,0.00,VWS V13.01,2013-03-24 22:29:00,
2013-03-24 17:34:00,35.6,22.7,30.01,West,265,10.5,13.2,59,0.00,,,0.00,VWS V13.01,2013-03-24 22:34:00,
2013-03-24 17:39:00,35.6,22.7,30.01,WSW,258,8.7,8.7,59,0.00,,,0.00,VWS V13.01,2013-03-24 22:39:00,
2013-03-24 17:44:00,35.6,22.7,30.01,West,267,7.2,12.8,59,0.00,,,0.00,VWS V13.01,2013-03-24 22:44:00,
2013-03-24 17:49:00,35.6,23.1,30.01,WSW,254,11.0,11.0,60,0.00,,,0.00,VWS V13.01,2013-03-24 22:49:00,
2013-03-24 17:54:00,35.4,22.5,30.01,WSW,254,5.4,5.4,59,0.00,,,0.00,VWS V13.01,2013-03-24 22:54:00,
2013-03-24 17:59:00,35.4,22.9,30.01,WSW,257,5.8,6.3,60,0.00,,,0.00,VWS V13.01,2013-03-24 22:59:00,
2013-03-24 18:04:00,35.4,22.9,30.01,West,262,12.3,12.3,60,0.00,,,0.00,VWS V13.01,2013-03-24 23:04:00,
2013-03-24 18:09:00,35.2,22.7,30.01,WSW,257,12.8,12.8,60,0.00,,,0.00,VWS V13.01,2013-03-24 23:09:00,
2013-03-24 18:14:00,35.2,22.7,30.01,West,260,8.7,15.0,60,0.00,,,0.00,VWS V13.01,2013-03-24 23:14:00,
2013-03-24 18:18:00,35.2,22.7,30.01,West,264,11.0,14.5,60,0.00,,,0.00,VWS V13.01,2013-03-24 23:18:00,
2013-03-24 18:23:00,35.2,22.7,30.01,West,266,8.3,10.1,60,0.00,,,0.00,VWS V13.01,2013-03-24 23:23:00,
2013-03-24 18:28:00,35.0,22.6,30.04,West,268,7.6,9.2,60,0.00,,,0.00,VWS V13.01,2013-03-24 23:28:00,
2013-03-24 18:33:00,35.0,22.6,30.04,West,268,8.7,8.7,60,0.00,,,0.00,VWS V13.01,2013-03-24 23:33:00,
2013-03-24 18:38:00,35.0,22.6,30.04,West,269,8.3,8.3,60,0.00,,,0.00,VWS V13.01,2013-03-24 23:38:00,
2013-03-24 18:43:00,35.0,22.2,30.04,WSW,250,10.1,10.5,59,0.00,,,0.00,VWS V13.01,2013-03-24 23:43:00,
2013-03-24 18:48:00,35.0,22.6,30.04,WNW,287,5.8,6.3,60,0.00,,,0.00,VWS V13.01,2013-03-24 23:48:00,
2013-03-24 18:53:00,34.9,22.4,30.04,West,270,6.3,7.6,60,0.00,,,0.00,VWS V13.01,2013-03-24 23:53:00,
2013-03-24 18:58:00,34.9,22.4,30.04,WSW,254,7.2,7.2,60,0.00,,,0.00,VWS V13.01,2013-03-24 23:58:00,
2013-03-24 19:03:00,34.7,22.2,30.04,WSW,257,11.0,21.0,60,0.00,,,0.00,VWS V13.01,2013-03-25 00:03:00,
2013-03-24 19:08:00,34.7,21.8,30.04,West,268,12.8,12.8,59,0.00,,,0.00,VWS V13.01,2013-03-25 00:08:00,
2013-03-24 19:13:00,34.3,21.5,30.04,West,277,13.2,15.0,59,0.00,,,0.00,VWS V13.01,2013-03-25 00:13:00,
2013-03-24 19:18:00,34.3,21.5,30.04,WSW,250,9.6,9.6,59,0.00,,,0.00,VWS V13.01,2013-03-25 00:18:00,
2013-03-24 19:23:00,34.1,21.7,30.04,West,265,8.1,8.1,60,0.00,,,0.00,VWS V13.01,2013-03-25 00:23:00,
2013-03-24 19:28:00,34.1,21.7,30.01,SW,232,5.8,5.8,60,0.00,,,0.00,VWS V13.01,2013-03-25 00:28:00,
2013-03-24 19:33:00,34.1,21.7,30.01,West,277,5.4,5.8,60,0.00,,,0.00,VWS V13.01,2013-03-25 00:33:00,
2013-03-24 19:39:00,34.1,21.7,30.01,West,270,8.1,8.1,60,0.00,,,0.00,VWS V13.01,2013-03-25 00:39:00,
2013-03-24 19:44:00,34.1,21.7,30.04,WSW,246,8.7,11.0,60,0.00,,,0.00,VWS V13.01,2013-03-25 00:44:00,
2013-03-24 19:49:00,34.1,21.7,30.04,WSW,241,8.7,12.3,60,0.00,,,0.00,VWS V13.01,2013-03-25 00:49:00,
2013-03-24 19:54:00,34.1,21.7,30.04,WSW,240,8.7,13.2,60,0.00,,,0.00,VWS V13.01,2013-03-25 00:54:00,
2013-03-24 19:59:00,34.1,21.7,30.04,West,259,9.2,9.2,60,0.00,,,0.00,VWS V13.01,2013-03-25 00:59:00,
2013-03-24 20:04:00,34.0,21.5,30.04,West,260,8.3,8.7,60,0.00,,,0.00,VWS V13.01,2013-03-25 01:04:00,
2013-03-24 20:09:00,34.0,21.5,30.04,SW,225,15.0,17.9,60,0.00,,,0.00,VWS V13.01,2013-03-25 01:09:00,
2013-03-24 20:13:00,33.8,21.0,30.04,WSW,258,8.3,11.0,59,0.00,,,0.00,VWS V13.01,2013-03-25 01:13:00,
2013-03-24 20:18:00,33.6,21.2,30.04,West,279,7.6,7.6,60,0.00,,,0.00,VWS V13.01,2013-03-25 01:18:00,
2013-03-24 20:23:00,33.6,21.2,30.04,WSW,252,8.7,8.7,60,0.00,,,0.00,VWS V13.01,2013-03-25 01:23:00,
2013-03-24 20:28:00,33.6,21.2,30.04,West,281,5.4,5.4,60,0.00,,,0.00,VWS V13.01,2013-03-25 01:28:00,
2013-03-24 20:33:00,33.4,21.0,30.04,WSW,239,3.6,5.4,60,0.00,,,0.00,VWS V13.01,2013-03-25 01:33:00,
2013-03-24 20:38:00,33.4,21.4,30.04,West,265,3.6,4.9,61,0.00,,,0.00,VWS V13.01,2013-03-25 01:38:00,
2013-03-24 20:43:00,33.4,21.0,30.04,NW,315,8.3,11.4,60,0.00,,,0.00,VWS V13.01,2013-03-25 01:43:00,
2013-03-24 20:49:00,33.4,21.0,30.04,WNW,287,11.0,11.0,60,0.00,,,0.00,VWS V13.01,2013-03-25 01:49:00,
2013-03-24 20:54:00,33.1,20.7,30.04,WSW,250,12.8,13.6,60,0.00,,,0.00,VWS V13.01,2013-03-25 01:54:00,
2013-03-24 20:58:00,33.1,20.7,30.07,West,264,5.4,5.4,60,0.00,,,0.00,VWS V13.01,2013-03-25 01:58:00,
2013-03-24 21:03:00,33.1,20.7,30.07,WSW,249,8.7,11.0,60,0.00,,,0.00,VWS V13.01,2013-03-25 02:03:00,
2013-03-24 21:08:00,33.1,20.7,30.07,West,277,10.1,11.4,60,0.00,,,0.00,VWS V13.01,2013-03-25 02:08:00,
2013-03-24 21:13:00,33.1,20.7,30.07,NW,318,5.8,5.8,60,0.00,,,0.00,VWS V13.01,2013-03-25 02:13:00,
2013-03-24 21:18:00,33.1,20.7,30.07,WSW,250,2.7,3.6,60,0.00,,,0.00,VWS V13.01,2013-03-25 02:18:00,
2013-03-24 21:23:00,33.1,20.7,30.07,WSW,237,5.8,5.8,60,0.00,,,0.00,VWS V13.01,2013-03-25 02:23:00,
2013-03-24 21:28:00,33.1,20.7,30.07,WNW,284,5.4,8.7,60,0.00,,,0.00,VWS V13.01,2013-03-25 02:28:00,
2013-03-24 21:33:00,33.1,20.7,30.07,West,260,8.3,9.6,60,0.00,,,0.00,VWS V13.01,2013-03-25 02:33:00,
2013-03-24 21:38:00,32.9,20.5,30.07,West,263,11.0,11.0,60,0.00,,,0.00,VWS V13.01,2013-03-25 02:38:00,
2013-03-24 21:43:00,33.1,20.3,30.07,NW,309,10.1,10.1,59,0.00,,,0.00,VWS V13.01,2013-03-25 02:43:00,
2013-03-24 21:48:00,33.1,20.3,30.07,WSW,252,8.3,8.3,59,0.00,,,0.00,VWS V13.01,2013-03-25 02:48:00,
2013-03-24 21:53:00,33.1,20.7,30.07,SW,228,6.3,10.5,60,0.00,,,0.00,VWS V13.01,2013-03-25 02:53:00,
2013-03-24 21:58:00,33.1,19.9,30.10,West,267,10.1,12.8,58,0.00,,,0.00,VWS V13.01,2013-03-25 02:58:00,
2013-03-24 22:03:00,32.9,20.1,30.10,West,264,5.8,5.8,59,0.00,,,0.00,VWS V13.01,2013-03-25 03:03:00,
2013-03-24 22:08:00,32.7,19.6,30.10,West,264,6.3,6.3,58,0.00,,,0.00,VWS V13.01,2013-03-25 03:08:00,
2013-03-24 22:13:00,32.5,19.4,30.10,West,266,6.3,7.6,58,0.00,,,0.00,VWS V13.01,2013-03-25 03:13:00,
2013-03-24 22:18:00,32.5,19.4,30.10,WSW,258,4.0,4.9,58,0.00,,,0.00,VWS V13.01,2013-03-25 03:18:00,
2013-03-24 22:23:00,32.3,20.0,30.10,West,260,5.8,8.1,60,0.00,,,0.00,VWS V13.01,2013-03-25 03:23:00,
2013-03-24 22:28:00,32.5,19.4,30.10,WSW,247,12.3,12.8,58,0.00,,,0.00,VWS V13.01,2013-03-25 03:28:00,
2013-03-24 22:33:00,32.5,19.8,30.10,WSW,253,5.4,10.5,59,0.00,,,0.00,VWS V13.01,2013-03-25 03:33:00,
2013-03-24 22:38:00,32.3,19.2,30.10,SW,235,4.9,5.8,58,0.00,,,0.00,VWS V13.01,2013-03-25 03:38:00,
2013-03-24 22:43:00,32.2,19.1,30.10,West,276,5.4,5.4,58,0.00,,,0.00,VWS V13.01,2013-03-25 03:43:00,
2013-03-24 22:48:00,32.0,18.5,30.10,WSW,240,4.0,4.9,57,0.00,,,0.00,VWS V13.01,2013-03-25 03:48:00,
2013-03-24 22:53:00,32.0,18.5,30.10,West,270,8.7,8.7,57,0.00,,,0.00,VWS V13.01,2013-03-25 03:53:00,
2013-03-24 22:58:00,31.8,18.3,30.10,West,259,9.2,9.2,57,0.00,,,0.00,VWS V13.01,2013-03-25 03:58:00,
2013-03-24 23:00:00,31.8,18.3,30.10,WSW,254,7.6,8.3,57,0.00,,,0.00,VWS V13.01,2013-03-25 04:00:00,
2013-03-24 23:05:00,31.8,18.3,30.10,West,275,5.4,10.5,57,0.00,,,0.00,VWS V13.01,2013-03-25 04:05:00,
2013-03-24 23:10:00,31.8,18.3,30.10,West,269,3.6,6.3,57,0.00,,,0.00,VWS V13.01,2013-03-25 04:10:00,
2013-03-24 23:15:00,31.4,18.0,30.10,West,264,4.9,9.6,57,0.00,,,0.00,VWS V13.01,2013-03-25 04:15:00,
2013-03-24 23:20:00,31.4,18.0,30.10,West,269,3.1,4.0,57,0.00,,,0.00,VWS V13.01,2013-03-25 04:20:00,
2013-03-24 23:25:00,31.4,18.4,30.10,WNW,287,3.6,4.0,58,0.00,,,0.00,VWS V13.01,2013-03-25 04:25:00,
2013-03-24 23:30:00,31.3,17.8,30.10,West,265,7.2,7.2,57,0.00,,,0.00,VWS V13.01,2013-03-25 04:30:00,
2013-03-24 23:35:00,31.3,17.8,30.10,WSW,247,3.1,6.3,57,0.00,,,0.00,VWS V13.01,2013-03-25 04:35:00,
2013-03-24 23:40:00,31.3,17.8,30.10,West,262,5.4,5.8,57,0.00,,,0.00,VWS V13.01,2013-03-25 04:40:00,
2013-03-24 23:45:00,31.3,17.4,30.10,West,275,12.3,12.3,56,0.00,,,0.00,VWS V13.01,2013-03-25 04:45:00,
2013-03-24 23:50:00,31.3,17.8,30.10,West,263,8.3,8.3,57,0.00,,,0.00,VWS V13.01,2013-03-25 04:50:00,
2013-03-24 23:54:00,31.3,17.4,30.10,WNW,283,5.8,7.6,56,0.00,,,0.00,VWS V13.01,2013-03-25 04:54:00,
2013-03-24 23:59:00,31.1,17.2,30.10,WSW,251,5.8,8.7,56,0.00,,,0.00,VWS V13.01,2013-03-25 04:59:00,